createdAt,value
2017-01-06T00:00:03.081Z,24.58
2017-01-06T00:00:18.049Z,24.56
2017-01-06T00:00:33.003Z,24.59
2017-01-06T00:00:47.977Z,24.58
2017-01-06T00:01:02.929Z,24.61
2017-01-06T00:01:17.764Z,24.59
2017-01-06T00:01:33.097Z,24.55
2017-01-06T00:01:47.957Z,24.51
2017-01-06T00:02:03.001Z,24.48
2017-01-06T00:02:17.898Z,24.48
2017-01-06T00:02:32.879Z,24.46
2017-01-06T00:02:47.845Z,24.48
2017-01-06T00:03:02.744Z,24.48
2017-01-06T00:03:17.615Z,24.51
2017-01-06T00:03:32.510Z,24.56
2017-01-06T00:03:47.403Z,24.51
2017-01-06T00:04:02.273Z,24.66
2017-01-06T00:04:17.280Z,24.59
2017-01-06T00:04:32.151Z,24.56
2017-01-06T00:04:47.096Z,24.58
2017-01-06T00:05:02.069Z,24.64
2017-01-06T00:05:16.966Z,24.66
2017-01-06T00:05:31.806Z,24.63
2017-01-06T00:05:46.665Z,24.55
2017-01-06T00:06:01.588Z,24.55
2017-01-06T00:06:16.570Z,24.66
2017-01-06T00:06:31.499Z,24.63
2017-01-06T00:06:46.478Z,24.55
2017-01-06T00:07:01.408Z,24.63
2017-01-06T00:07:16.237Z,24.74
2017-01-06T00:07:31.115Z,24.64
2017-01-06T00:07:46.180Z,24.75
2017-01-06T00:08:01.008Z,24.75
2017-01-06T00:08:15.814Z,24.78
2017-01-06T00:08:30.821Z,24.74
2017-01-06T00:08:45.701Z,24.75
2017-01-06T00:09:00.526Z,24.74
2017-01-06T00:09:15.485Z,24.69
2017-01-06T00:09:30.384Z,24.66
2017-01-06T00:09:45.194Z,24.75
2017-01-06T00:10:00.014Z,24.74
2017-01-06T00:10:14.860Z,24.8
2017-01-06T00:10:29.768Z,24.74
2017-01-06T00:10:44.743Z,24.71
2017-01-06T00:10:59.597Z,24.71
2017-01-06T00:11:14.544Z,24.82
2017-01-06T00:11:29.443Z,24.89
2017-01-06T00:11:44.340Z,24.78
2017-01-06T00:11:59.256Z,24.83
2017-01-06T00:12:14.115Z,24.8
2017-01-06T00:12:29.013Z,24.83
2017-01-06T00:12:43.965Z,24.83
2017-01-06T00:12:58.899Z,24.77
2017-01-06T00:13:13.741Z,24.86
2017-01-06T00:13:28.656Z,24.85
2017-01-06T00:13:43.611Z,24.86
2017-01-06T00:13:58.521Z,24.82
2017-01-06T00:14:13.393Z,24.8
2017-01-06T00:14:28.311Z,24.83
2017-01-06T00:14:43.206Z,24.8
2017-01-06T00:14:58.211Z,24.85
2017-01-06T00:15:13.351Z,24.87
2017-01-06T00:15:28.215Z,24.83
2017-01-06T00:15:43.156Z,24.85
2017-01-06T00:15:58.026Z,24.94
2017-01-06T00:16:12.955Z,24.83
2017-01-06T00:16:27.849Z,24.9
2017-01-06T00:16:42.932Z,24.96
2017-01-06T00:16:57.825Z,24.96
2017-01-06T00:17:12.724Z,24.96
2017-01-06T00:17:27.725Z,24.96
2017-01-06T00:17:42.612Z,24.93
2017-01-06T00:17:57.521Z,24.96
2017-01-06T00:18:12.507Z,24.93
2017-01-06T00:18:27.350Z,25.08
2017-01-06T00:18:42.226Z,25.01
2017-01-06T00:18:57.140Z,25.05
2017-01-06T00:19:11.979Z,25.01
2017-01-06T00:19:26.812Z,25.02
2017-01-06T00:19:41.661Z,25.07
2017-01-06T00:19:56.618Z,25.02
2017-01-06T00:20:11.510Z,25.09
2017-01-06T00:20:26.529Z,25.11
2017-01-06T00:20:41.432Z,25.08
2017-01-06T00:20:56.421Z,25.05
2017-01-06T00:21:11.499Z,25.19
2017-01-06T00:21:26.390Z,25.14
2017-01-06T00:21:41.183Z,25.09
2017-01-06T00:21:55.999Z,25.14
2017-01-06T00:22:10.883Z,25.08
2017-01-06T00:22:25.753Z,25.07
2017-01-06T00:22:40.756Z,25.07
2017-01-06T00:22:55.681Z,25.08
2017-01-06T00:23:10.610Z,25.09
2017-01-06T00:23:25.487Z,25.05
2017-01-06T00:23:40.368Z,25.11
2017-01-06T00:23:55.211Z,25.12
2017-01-06T00:24:10.281Z,25.15
2017-01-06T00:24:25.249Z,25.11
2017-01-06T00:24:40.125Z,25.17
2017-01-06T00:24:55.019Z,25.17
2017-01-06T00:25:09.949Z,25.11
2017-01-06T00:25:24.763Z,25.02
2017-01-06T00:25:39.615Z,25.17
2017-01-06T00:25:54.561Z,25.17
2017-01-06T00:26:09.527Z,25.15
2017-01-06T00:26:24.404Z,25.11
2017-01-06T00:26:39.442Z,25.19
2017-01-06T00:26:54.374Z,25.04
2017-01-06T00:27:09.422Z,25.2
2017-01-06T00:27:24.374Z,25.23
2017-01-06T00:27:39.246Z,25.22
2017-01-06T00:27:54.131Z,25.22
2017-01-06T00:28:09.072Z,25.12
2017-01-06T00:28:24.017Z,25.17
2017-01-06T00:28:38.936Z,25.19
2017-01-06T00:28:53.891Z,25.17
2017-01-06T00:29:08.751Z,25.15
2017-01-06T00:29:23.606Z,25.23
2017-01-06T00:29:38.538Z,25.19
2017-01-06T00:29:53.428Z,25.19
2017-01-06T00:30:08.476Z,25.17
2017-01-06T00:30:23.387Z,25.17
2017-01-06T00:30:38.323Z,25.14
2017-01-06T00:30:53.212Z,25.19
2017-01-06T00:31:08.098Z,25.22
2017-01-06T00:31:23.121Z,25.24
2017-01-06T00:31:38.001Z,25.23
2017-01-06T00:31:53.226Z,25.2
2017-01-06T00:32:08.110Z,25.33
2017-01-06T00:32:23.117Z,25.3
2017-01-06T00:32:37.929Z,25.3
2017-01-06T00:32:52.918Z,25.32
2017-01-06T00:33:07.815Z,25.3
2017-01-06T00:33:22.765Z,25.29
2017-01-06T00:33:37.664Z,25.29
2017-01-06T00:33:52.524Z,25.27
2017-01-06T00:34:07.475Z,25.37
2017-01-06T00:34:22.374Z,25.24
2017-01-06T00:34:37.317Z,25.3
2017-01-06T00:34:52.220Z,25.37
2017-01-06T00:35:07.024Z,25.34
2017-01-06T00:35:22.028Z,25.33
2017-01-06T00:35:36.889Z,25.34
2017-01-06T00:35:51.908Z,25.38
2017-01-06T00:36:06.845Z,25.37
2017-01-06T00:36:21.714Z,25.33
2017-01-06T00:36:36.637Z,25.39
2017-01-06T00:36:52.147Z,25.34
2017-01-06T00:37:07.044Z,25.37
2017-01-06T00:37:21.905Z,25.39
2017-01-06T00:37:36.830Z,25.42
2017-01-06T00:37:51.754Z,25.49
2017-01-06T00:38:06.577Z,25.54
2017-01-06T00:38:21.443Z,25.48
2017-01-06T00:38:36.350Z,25.52
2017-01-06T00:38:51.309Z,25.59
2017-01-06T00:39:06.240Z,25.63
2017-01-06T00:39:21.152Z,25.6
2017-01-06T00:39:36.104Z,25.57
2017-01-06T00:39:51.004Z,25.63
2017-01-06T00:40:05.840Z,25.59
2017-01-06T00:40:20.844Z,25.64
2017-01-06T00:40:35.728Z,25.66
2017-01-06T00:40:50.936Z,25.66
2017-01-06T00:41:05.885Z,25.7
2017-01-06T00:41:20.766Z,25.7
2017-01-06T00:41:35.660Z,25.56
2017-01-06T00:41:50.556Z,25.6
2017-01-06T00:42:05.552Z,25.62
2017-01-06T00:42:20.470Z,25.6
2017-01-06T00:42:35.395Z,25.57
2017-01-06T00:42:50.378Z,25.56
2017-01-06T00:43:05.243Z,25.62
2017-01-06T00:43:20.154Z,25.6
2017-01-06T00:43:35.021Z,25.52
2017-01-06T00:43:49.979Z,25.6
2017-01-06T00:44:04.941Z,25.52
2017-01-06T00:44:19.801Z,25.49
2017-01-06T00:44:34.660Z,25.47
2017-01-06T00:44:49.891Z,25.49
2017-01-06T00:45:04.764Z,25.45
2017-01-06T00:45:19.833Z,25.51
2017-01-06T00:45:34.788Z,25.49
2017-01-06T00:45:49.689Z,25.45
2017-01-06T00:46:04.514Z,25.52
2017-01-06T00:46:19.389Z,25.49
2017-01-06T00:46:34.252Z,25.51
2017-01-06T00:46:49.230Z,25.52
2017-01-06T00:47:04.604Z,25.49
2017-01-06T00:47:19.496Z,25.44
2017-01-06T00:47:34.413Z,25.39
2017-01-06T00:47:49.348Z,25.44
2017-01-06T00:48:04.259Z,25.38
2017-01-06T00:48:19.205Z,25.37
2017-01-06T00:48:34.090Z,25.42
2017-01-06T00:48:48.889Z,25.37
2017-01-06T00:49:03.790Z,25.39
2017-01-06T00:49:18.749Z,25.44
2017-01-06T00:49:33.657Z,25.34
2017-01-06T00:49:48.539Z,25.33
2017-01-06T00:50:03.524Z,25.33
2017-01-06T00:50:18.527Z,25.41
2017-01-06T00:50:33.426Z,25.38
2017-01-06T00:50:48.318Z,25.39
2017-01-06T00:51:03.189Z,25.32
2017-01-06T00:51:18.108Z,25.42
2017-01-06T00:51:32.914Z,25.39
2017-01-06T00:51:47.762Z,25.33
2017-01-06T00:52:02.609Z,25.32
2017-01-06T00:52:17.464Z,25.37
2017-01-06T00:52:32.383Z,25.33
2017-01-06T00:52:47.322Z,25.34
2017-01-06T00:53:02.247Z,25.34
2017-01-06T00:53:17.152Z,25.41
2017-01-06T00:53:32.124Z,25.39
2017-01-06T00:53:47.004Z,25.34
2017-01-06T00:54:01.858Z,25.39
2017-01-06T00:54:16.684Z,25.39
2017-01-06T00:54:31.625Z,25.34
2017-01-06T00:54:46.653Z,25.39
2017-01-06T00:55:01.592Z,25.39
2017-01-06T00:55:16.466Z,25.37
2017-01-06T00:55:31.381Z,25.3
2017-01-06T00:55:46.313Z,25.34
2017-01-06T00:56:01.208Z,25.37
2017-01-06T00:56:16.053Z,25.33
2017-01-06T00:56:30.933Z,25.27
2017-01-06T00:56:45.910Z,25.33
2017-01-06T00:57:00.841Z,25.38
2017-01-06T00:57:15.686Z,25.37
2017-01-06T00:57:30.539Z,25.39
2017-01-06T00:57:45.346Z,25.34
2017-01-06T00:58:00.266Z,25.29
2017-01-06T00:58:15.267Z,25.29
2017-01-06T00:58:30.182Z,25.34
2017-01-06T00:58:45.084Z,25.32
2017-01-06T00:58:59.974Z,25.34
2017-01-06T00:59:14.875Z,25.32
2017-01-06T00:59:29.680Z,25.44
2017-01-06T00:59:44.559Z,25.44
2017-01-06T00:59:59.442Z,25.37
2017-01-06T01:00:14.376Z,25.32
2017-01-06T01:00:29.219Z,25.33
2017-01-06T01:00:44.120Z,25.33
2017-01-06T01:00:59.017Z,25.37
2017-01-06T01:01:14.050Z,25.34
2017-01-06T01:01:29.106Z,25.38
2017-01-06T01:01:43.902Z,25.38
2017-01-06T01:01:59.075Z,25.39
2017-01-06T01:02:14.062Z,25.39
2017-01-06T01:02:28.906Z,25.47
2017-01-06T01:02:43.866Z,25.37
2017-01-06T01:02:58.803Z,25.45
2017-01-06T01:03:13.779Z,25.47
2017-01-06T01:03:28.744Z,25.44
2017-01-06T01:03:43.700Z,25.37
2017-01-06T01:03:58.577Z,25.33
2017-01-06T01:04:13.473Z,25.37
2017-01-06T01:04:28.365Z,25.47
2017-01-06T01:04:43.345Z,25.44
2017-01-06T01:04:58.191Z,25.41
2017-01-06T01:05:13.031Z,25.45
2017-01-06T01:05:27.969Z,25.37
2017-01-06T01:05:42.831Z,25.33
2017-01-06T01:05:57.818Z,25.42
2017-01-06T01:06:12.968Z,25.33
2017-01-06T01:06:27.791Z,25.44
2017-01-06T01:06:42.728Z,25.37
2017-01-06T01:06:57.655Z,25.34
2017-01-06T01:07:12.476Z,25.34
2017-01-06T01:07:27.289Z,25.33
2017-01-06T01:07:42.282Z,25.3
2017-01-06T01:07:57.223Z,25.3
2017-01-06T01:08:12.144Z,25.3
2017-01-06T01:08:27.079Z,25.33
2017-01-06T01:08:41.952Z,25.23
2017-01-06T01:08:56.817Z,25.2
2017-01-06T01:09:11.680Z,25.14
2017-01-06T01:09:26.598Z,25.11
2017-01-06T01:09:41.619Z,25.14
2017-01-06T01:09:56.725Z,25.17
2017-01-06T01:10:11.534Z,25.02
2017-01-06T01:10:26.434Z,25.07
2017-01-06T01:10:41.251Z,25.04
2017-01-06T01:10:56.122Z,25.05
2017-01-06T01:11:11.117Z,25.05
2017-01-06T01:11:26.047Z,25.05
2017-01-06T01:11:41.611Z,25.05
2017-01-06T01:11:56.488Z,25.11
2017-01-06T01:12:11.361Z,25.09
2017-01-06T01:12:26.219Z,25.08
2017-01-06T01:12:41.091Z,25.01
2017-01-06T01:12:56.013Z,25
2017-01-06T01:13:10.915Z,25.04
2017-01-06T01:13:25.828Z,24.92
2017-01-06T01:13:40.770Z,24.92
2017-01-06T01:13:55.729Z,24.87
2017-01-06T01:14:10.587Z,24.87
2017-01-06T01:14:25.549Z,24.78
2017-01-06T01:14:40.509Z,24.87
2017-01-06T01:14:55.521Z,24.86
2017-01-06T01:15:10.551Z,24.87
2017-01-06T01:15:25.420Z,24.89
2017-01-06T01:15:40.296Z,24.87
2017-01-06T01:15:55.229Z,24.85
2017-01-06T01:16:10.157Z,24.85
2017-01-06T01:16:25.015Z,24.92
2017-01-06T01:16:40.101Z,24.89
2017-01-06T01:16:55.056Z,24.94
2017-01-06T01:17:10.507Z,24.94
2017-01-06T01:17:25.389Z,24.96
2017-01-06T01:17:40.310Z,24.94
2017-01-06T01:17:55.301Z,24.93
2017-01-06T01:18:10.274Z,24.93
2017-01-06T01:18:25.119Z,24.93
2017-01-06T01:18:40.016Z,24.9
2017-01-06T01:18:54.864Z,24.92
2017-01-06T01:19:09.708Z,24.93
2017-01-06T01:19:24.569Z,24.93
2017-01-06T01:19:39.418Z,24.82
2017-01-06T01:19:54.301Z,24.85
2017-01-06T01:20:09.149Z,24.85
2017-01-06T01:20:24.061Z,24.86
2017-01-06T01:20:38.904Z,24.85
2017-01-06T01:20:53.756Z,24.78
2017-01-06T01:21:08.623Z,24.85
2017-01-06T01:21:23.539Z,24.83
2017-01-06T01:21:38.386Z,24.77
2017-01-06T01:21:53.333Z,24.75
2017-01-06T01:22:08.316Z,24.8
2017-01-06T01:22:23.186Z,24.8
2017-01-06T01:22:38.066Z,24.87
2017-01-06T01:22:52.984Z,24.85
2017-01-06T01:23:07.988Z,24.83
2017-01-06T01:23:22.898Z,24.8
2017-01-06T01:23:37.847Z,24.85
2017-01-06T01:23:52.659Z,24.85
2017-01-06T01:24:07.539Z,24.85
2017-01-06T01:24:22.368Z,24.82
2017-01-06T01:24:37.238Z,24.92
2017-01-06T01:24:52.123Z,24.97
2017-01-06T01:25:07.101Z,25.01
2017-01-06T01:25:22.086Z,24.97
2017-01-06T01:25:36.962Z,25.04
2017-01-06T01:25:51.868Z,25.08
2017-01-06T01:26:06.865Z,25.07
2017-01-06T01:26:21.790Z,25.07
2017-01-06T01:26:36.747Z,25
2017-01-06T01:26:51.725Z,25.07
2017-01-06T01:27:06.639Z,25.05
2017-01-06T01:27:21.607Z,25.02
2017-01-06T01:27:36.546Z,25.07
2017-01-06T01:27:51.452Z,25.07
2017-01-06T01:28:06.361Z,25.05
2017-01-06T01:28:21.188Z,25.05
2017-01-06T01:28:36.091Z,25.07
2017-01-06T01:28:50.954Z,25.07
2017-01-06T01:29:05.823Z,25.01
2017-01-06T01:29:20.757Z,25.07
2017-01-06T01:29:35.607Z,25.02
2017-01-06T01:29:50.479Z,24.97
2017-01-06T01:30:05.281Z,24.93
2017-01-06T01:30:20.191Z,24.94
2017-01-06T01:30:35.011Z,25.05
2017-01-06T01:30:49.827Z,24.92
2017-01-06T01:31:04.747Z,24.92
2017-01-06T01:31:19.628Z,24.94
2017-01-06T01:31:34.611Z,25
2017-01-06T01:31:49.479Z,24.94
2017-01-06T01:32:04.326Z,24.94
2017-01-06T01:32:19.797Z,24.96
2017-01-06T01:32:34.707Z,24.96
2017-01-06T01:32:49.571Z,24.97
2017-01-06T01:33:04.432Z,24.94
2017-01-06T01:33:19.268Z,24.93
2017-01-06T01:33:34.164Z,24.92
2017-01-06T01:33:49.080Z,24.92
2017-01-06T01:34:04.124Z,24.87
2017-01-06T01:34:19.041Z,24.8
2017-01-06T01:34:33.889Z,24.87
2017-01-06T01:34:48.898Z,24.78
2017-01-06T01:35:03.933Z,24.74
2017-01-06T01:35:18.940Z,24.77
2017-01-06T01:35:33.763Z,24.8
2017-01-06T01:35:48.577Z,24.71
2017-01-06T01:36:03.461Z,24.71
2017-01-06T01:36:18.539Z,24.71
2017-01-06T01:36:33.432Z,24.85
2017-01-06T01:36:48.279Z,24.77
2017-01-06T01:37:03.199Z,24.7
2017-01-06T01:37:18.140Z,24.75
2017-01-06T01:37:33.111Z,24.8
2017-01-06T01:37:47.930Z,24.82
2017-01-06T01:38:02.761Z,24.85
2017-01-06T01:38:17.691Z,24.74
2017-01-06T01:38:32.634Z,24.86
2017-01-06T01:38:47.519Z,24.75
2017-01-06T01:39:02.483Z,24.74
2017-01-06T01:39:17.356Z,24.8
2017-01-06T01:39:32.214Z,24.78
2017-01-06T01:39:47.141Z,24.83
2017-01-06T01:40:02.210Z,24.85
2017-01-06T01:40:17.143Z,24.85
2017-01-06T01:40:32.127Z,24.77
2017-01-06T01:40:47.029Z,24.82
2017-01-06T01:41:01.874Z,24.77
2017-01-06T01:41:16.896Z,24.77
2017-01-06T01:41:31.787Z,24.82
2017-01-06T01:41:46.746Z,24.67
2017-01-06T01:42:01.672Z,24.7
2017-01-06T01:42:16.483Z,24.77
2017-01-06T01:42:31.318Z,24.66
2017-01-06T01:42:46.193Z,24.67
2017-01-06T01:43:01.117Z,24.71
2017-01-06T01:43:15.925Z,24.59
2017-01-06T01:43:30.877Z,24.59
2017-01-06T01:43:45.808Z,24.69
2017-01-06T01:44:00.662Z,24.64
2017-01-06T01:44:15.540Z,24.64
2017-01-06T01:44:30.394Z,24.55
2017-01-06T01:44:45.344Z,24.63
2017-01-06T01:45:00.260Z,24.61
2017-01-06T01:45:15.254Z,24.52
2017-01-06T01:45:30.139Z,24.59
2017-01-06T01:45:44.948Z,24.61
2017-01-06T01:45:59.841Z,24.67
2017-01-06T01:46:14.866Z,24.61
2017-01-06T01:46:29.762Z,24.63
2017-01-06T01:46:44.639Z,24.61
2017-01-06T01:46:59.588Z,24.67
2017-01-06T01:47:14.481Z,24.52
2017-01-06T01:47:29.902Z,24.61
2017-01-06T01:47:44.848Z,24.69
2017-01-06T01:47:59.862Z,24.55
2017-01-06T01:48:14.736Z,24.64
2017-01-06T01:48:29.588Z,24.59
2017-01-06T01:48:44.429Z,24.61
2017-01-06T01:48:59.321Z,24.54
2017-01-06T01:49:14.308Z,24.59
2017-01-06T01:49:29.287Z,24.61
2017-01-06T01:49:44.273Z,24.61
2017-01-06T01:49:59.178Z,24.59
2017-01-06T01:50:14.151Z,24.63
2017-01-06T01:50:29.142Z,24.56
2017-01-06T01:50:43.988Z,24.55
2017-01-06T01:50:58.836Z,24.59
2017-01-06T01:51:13.763Z,24.59
2017-01-06T01:51:28.611Z,24.55
2017-01-06T01:51:43.466Z,24.58
2017-01-06T01:51:58.419Z,24.49
2017-01-06T01:52:13.371Z,24.51
2017-01-06T01:52:28.409Z,24.51
2017-01-06T01:52:43.316Z,24.51
2017-01-06T01:52:58.266Z,24.46
2017-01-06T01:53:13.097Z,24.44
2017-01-06T01:53:27.970Z,24.44
2017-01-06T01:53:42.805Z,24.51
2017-01-06T01:53:57.670Z,24.44
2017-01-06T01:54:12.527Z,24.4
2017-01-06T01:54:27.576Z,24.42
2017-01-06T01:54:42.501Z,24.49
2017-01-06T01:54:57.394Z,24.45
2017-01-06T01:55:12.349Z,24.49
2017-01-06T01:55:27.169Z,24.52
2017-01-06T01:55:42.006Z,24.49
2017-01-06T01:55:56.936Z,24.63
2017-01-06T01:56:11.859Z,24.61
2017-01-06T01:56:26.705Z,24.66
2017-01-06T01:56:41.674Z,24.67
2017-01-06T01:56:56.625Z,24.61
2017-01-06T01:57:11.558Z,24.66
2017-01-06T01:57:26.471Z,24.77
2017-01-06T01:57:41.399Z,24.75
2017-01-06T01:57:56.534Z,24.74
2017-01-06T01:58:11.462Z,24.77
2017-01-06T01:58:26.505Z,24.71
2017-01-06T01:58:41.444Z,24.8
2017-01-06T01:58:56.304Z,24.8
2017-01-06T01:59:11.225Z,24.82
2017-01-06T01:59:26.244Z,24.77
2017-01-06T01:59:41.162Z,24.83
2017-01-06T01:59:56.023Z,24.85
2017-01-06T02:00:10.994Z,24.82
2017-01-06T02:00:26.005Z,24.82
2017-01-06T02:00:40.853Z,24.86
2017-01-06T02:00:55.749Z,24.77
2017-01-06T02:01:10.705Z,24.83
2017-01-06T02:01:25.644Z,24.8
2017-01-06T02:01:40.521Z,24.83
2017-01-06T02:01:55.413Z,24.8
2017-01-06T02:02:10.413Z,24.83
2017-01-06T02:02:25.780Z,24.74
2017-01-06T02:02:40.556Z,24.71
2017-01-06T02:02:55.400Z,24.61
2017-01-06T02:03:10.278Z,24.58
2017-01-06T02:03:25.171Z,24.75
2017-01-06T02:03:40.201Z,24.75
2017-01-06T02:03:55.069Z,24.75
2017-01-06T02:04:10.050Z,24.69
2017-01-06T02:04:25.071Z,24.7
2017-01-06T02:04:39.993Z,24.71
2017-01-06T02:04:54.866Z,24.66
2017-01-06T02:05:09.798Z,24.83
2017-01-06T02:05:24.648Z,24.74
2017-01-06T02:05:39.559Z,24.67
2017-01-06T02:05:54.432Z,24.77
2017-01-06T02:06:09.258Z,24.69
2017-01-06T02:06:24.186Z,24.67
2017-01-06T02:06:39.154Z,24.69
2017-01-06T02:06:54.128Z,24.58
2017-01-06T02:07:09.008Z,24.67
2017-01-06T02:07:24.096Z,24.66
2017-01-06T02:07:39.093Z,24.66
2017-01-06T02:07:54.058Z,24.56
2017-01-06T02:08:09.085Z,24.56
2017-01-06T02:08:24.066Z,24.54
2017-01-06T02:08:38.973Z,24.46
2017-01-06T02:08:53.893Z,24.49
2017-01-06T02:09:08.808Z,24.36
2017-01-06T02:09:23.640Z,24.34
2017-01-06T02:09:38.543Z,24.4
2017-01-06T02:09:53.510Z,24.45
2017-01-06T02:10:08.342Z,24.37
2017-01-06T02:10:23.227Z,24.39
2017-01-06T02:10:38.111Z,24.37
2017-01-06T02:10:53.053Z,24.39
2017-01-06T02:11:08.037Z,24.39
2017-01-06T02:11:22.936Z,24.39
2017-01-06T02:11:37.838Z,24.37
2017-01-06T02:11:52.706Z,24.46
2017-01-06T02:12:07.763Z,24.42
2017-01-06T02:12:22.646Z,24.36
2017-01-06T02:12:37.540Z,24.3
2017-01-06T02:12:52.387Z,24.36
2017-01-06T02:13:07.381Z,24.18
2017-01-06T02:13:22.280Z,24.29
2017-01-06T02:13:37.147Z,24.24
2017-01-06T02:13:52.138Z,24.21
2017-01-06T02:14:07.022Z,24.19
2017-01-06T02:14:21.929Z,24.22
2017-01-06T02:14:36.803Z,24.19
2017-01-06T02:14:51.654Z,24.11
2017-01-06T02:15:06.508Z,24.17
2017-01-06T02:15:21.489Z,24.14
2017-01-06T02:15:36.340Z,24.07
2017-01-06T02:15:51.397Z,24.08
2017-01-06T02:16:06.316Z,24.07
2017-01-06T02:16:21.293Z,24.04
2017-01-06T02:16:36.191Z,24.03
2017-01-06T02:16:51.022Z,24.12
2017-01-06T02:17:05.847Z,24
2017-01-06T02:17:20.952Z,24.07
2017-01-06T02:17:36.253Z,24.03
2017-01-06T02:17:51.293Z,24.08
2017-01-06T02:18:06.227Z,24.02
2017-01-06T02:18:21.115Z,24.02
2017-01-06T02:18:36.142Z,24.07
2017-01-06T02:18:51.104Z,24.08
2017-01-06T02:19:05.979Z,23.99
2017-01-06T02:19:20.923Z,24.07
2017-01-06T02:19:35.846Z,24.02
2017-01-06T02:19:50.828Z,23.99
2017-01-06T02:20:05.742Z,24.02
2017-01-06T02:20:20.659Z,23.99
2017-01-06T02:20:35.549Z,24.09
2017-01-06T02:20:50.414Z,24.03
2017-01-06T02:21:05.290Z,24.02
2017-01-06T02:21:20.190Z,24.02
2017-01-06T02:21:35.041Z,24.07
2017-01-06T02:21:50.049Z,23.94
2017-01-06T02:22:05.006Z,24
2017-01-06T02:22:19.877Z,24
2017-01-06T02:22:34.859Z,23.99
2017-01-06T02:22:49.737Z,23.99
2017-01-06T02:23:04.573Z,24.04
2017-01-06T02:23:19.402Z,24.02
2017-01-06T02:23:34.338Z,23.96
2017-01-06T02:23:49.186Z,24.02
2017-01-06T02:24:04.142Z,23.99
2017-01-06T02:24:19.062Z,23.9
2017-01-06T02:24:33.910Z,24
2017-01-06T02:24:48.829Z,23.93
2017-01-06T02:25:03.676Z,23.9
2017-01-06T02:25:18.555Z,24
2017-01-06T02:25:33.522Z,24.09
2017-01-06T02:25:48.456Z,23.97
2017-01-06T02:26:03.362Z,24.03
2017-01-06T02:26:18.182Z,24.07
2017-01-06T02:26:33.024Z,24.02
2017-01-06T02:26:47.899Z,24.08
2017-01-06T02:27:02.760Z,24.07
2017-01-06T02:27:17.692Z,24.07
2017-01-06T02:27:32.704Z,24.09
2017-01-06T02:27:47.619Z,24.07
2017-01-06T02:28:02.608Z,24.04
2017-01-06T02:28:17.427Z,24.04
2017-01-06T02:28:32.298Z,24.08
2017-01-06T02:28:47.276Z,24.14
2017-01-06T02:29:02.190Z,24.11
2017-01-06T02:29:17.155Z,24.17
2017-01-06T02:29:32.062Z,24.17
2017-01-06T02:29:46.944Z,24.15
2017-01-06T02:30:01.768Z,24.18
2017-01-06T02:30:16.666Z,24.14
2017-01-06T02:30:31.515Z,24.22
2017-01-06T02:30:46.460Z,24.14
2017-01-06T02:31:01.295Z,24.22
2017-01-06T02:31:16.200Z,24.19
2017-01-06T02:31:31.129Z,24.18
2017-01-06T02:31:45.990Z,24.26
2017-01-06T02:32:00.864Z,24.21
2017-01-06T02:32:15.715Z,24.26
2017-01-06T02:32:30.818Z,24.22
2017-01-06T02:32:46.035Z,24.22
2017-01-06T02:33:01.025Z,24.22
2017-01-06T02:33:15.900Z,24.27
2017-01-06T02:33:30.807Z,24.22
2017-01-06T02:33:45.662Z,24.3
2017-01-06T02:34:00.641Z,24.22
2017-01-06T02:34:15.453Z,24.21
2017-01-06T02:34:30.280Z,24.12
2017-01-06T02:34:45.230Z,24.08
2017-01-06T02:35:00.113Z,24.11
2017-01-06T02:35:15.057Z,24.08
2017-01-06T02:35:29.923Z,24.17
2017-01-06T02:35:44.862Z,24.18
2017-01-06T02:35:59.726Z,24.14
2017-01-06T02:36:14.630Z,24.12
2017-01-06T02:36:29.531Z,24.17
2017-01-06T02:36:44.422Z,24.19
2017-01-06T02:36:59.229Z,24.19
2017-01-06T02:37:14.091Z,24.22
2017-01-06T02:37:29.035Z,24.14
2017-01-06T02:37:43.918Z,24.15
2017-01-06T02:37:58.729Z,24.19
2017-01-06T02:38:13.589Z,24.17
2017-01-06T02:38:28.620Z,24.12
2017-01-06T02:38:43.570Z,24.17
2017-01-06T02:38:58.426Z,24.14
2017-01-06T02:39:13.300Z,24.17
2017-01-06T02:39:28.245Z,24.17
2017-01-06T02:39:43.167Z,24.12
2017-01-06T02:39:57.996Z,24.14
2017-01-06T02:40:12.908Z,24.17
2017-01-06T02:40:27.810Z,24.15
2017-01-06T02:40:42.752Z,24.12
2017-01-06T02:40:57.756Z,24.07
2017-01-06T02:41:12.626Z,24.03
2017-01-06T02:41:27.559Z,24.07
2017-01-06T02:41:42.595Z,23.96
2017-01-06T02:41:57.467Z,24.03
2017-01-06T02:42:12.337Z,23.99
2017-01-06T02:42:27.247Z,23.96
2017-01-06T02:42:42.219Z,23.97
2017-01-06T02:42:57.224Z,23.99
2017-01-06T02:43:12.175Z,24.03
2017-01-06T02:43:27.082Z,23.96
2017-01-06T02:43:42.062Z,23.97
2017-01-06T02:43:56.992Z,23.94
2017-01-06T02:44:11.834Z,24
2017-01-06T02:44:26.709Z,23.96
2017-01-06T02:44:41.569Z,23.96
2017-01-06T02:44:56.547Z,23.96
2017-01-06T02:45:11.433Z,24
2017-01-06T02:45:26.330Z,23.99
2017-01-06T02:45:41.264Z,24.02
2017-01-06T02:45:56.227Z,24.04
2017-01-06T02:46:11.043Z,24.02
2017-01-06T02:46:25.949Z,24.07
2017-01-06T02:46:40.770Z,24.07
2017-01-06T02:46:55.700Z,24.02
2017-01-06T02:47:10.565Z,24.08
2017-01-06T02:47:25.456Z,24.07
2017-01-06T02:47:40.361Z,23.93
2017-01-06T02:47:55.497Z,23.96
2017-01-06T02:48:10.333Z,23.89
2017-01-06T02:48:25.190Z,23.89
2017-01-06T02:48:40.081Z,23.84
2017-01-06T02:48:54.951Z,23.85
2017-01-06T02:49:09.971Z,23.85
2017-01-06T02:49:25.016Z,23.82
2017-01-06T02:49:39.870Z,23.72
2017-01-06T02:49:54.780Z,23.79
2017-01-06T02:50:09.639Z,23.77
2017-01-06T02:50:24.485Z,23.71
2017-01-06T02:50:39.440Z,23.74
2017-01-06T02:50:54.348Z,23.71
2017-01-06T02:51:09.187Z,23.7
2017-01-06T02:51:24.056Z,23.78
2017-01-06T02:51:38.913Z,23.75
2017-01-06T02:51:53.810Z,23.74
2017-01-06T02:52:08.903Z,23.75
2017-01-06T02:52:23.858Z,23.74
2017-01-06T02:52:38.770Z,23.71
2017-01-06T02:52:53.602Z,23.78
2017-01-06T02:53:08.469Z,23.74
2017-01-06T02:53:23.415Z,23.72
2017-01-06T02:53:38.202Z,23.74
2017-01-06T02:53:53.084Z,23.72
2017-01-06T02:54:08.072Z,23.74
2017-01-06T02:54:22.984Z,23.77
2017-01-06T02:54:37.881Z,23.74
2017-01-06T02:54:52.760Z,23.79
2017-01-06T02:55:07.777Z,23.74
2017-01-06T02:55:22.674Z,23.87
2017-01-06T02:55:37.519Z,23.79
2017-01-06T02:55:52.339Z,23.7
2017-01-06T02:56:07.271Z,23.79
2017-01-06T02:56:22.198Z,23.7
2017-01-06T02:56:37.144Z,23.74
2017-01-06T02:56:52.020Z,23.75
2017-01-06T02:57:06.875Z,23.75
2017-01-06T02:57:21.809Z,23.71
2017-01-06T02:57:36.703Z,23.59
2017-01-06T02:57:51.584Z,23.66
2017-01-06T02:58:06.402Z,23.63
2017-01-06T02:58:21.300Z,23.63
2017-01-06T02:58:36.143Z,23.63
2017-01-06T02:58:50.947Z,23.57
2017-01-06T02:59:05.776Z,23.59
2017-01-06T02:59:20.593Z,23.64
2017-01-06T02:59:35.447Z,23.63
2017-01-06T02:59:50.348Z,23.64
2017-01-06T03:00:05.368Z,23.66
2017-01-06T03:00:20.168Z,23.66
2017-01-06T03:00:35.118Z,23.71
2017-01-06T03:00:50.012Z,23.74
2017-01-06T03:01:04.919Z,23.74
2017-01-06T03:01:19.839Z,23.71
2017-01-06T03:01:34.698Z,23.66
2017-01-06T03:01:49.573Z,23.7
2017-01-06T03:02:04.449Z,23.74
2017-01-06T03:02:19.322Z,23.67
2017-01-06T03:02:34.182Z,23.67
2017-01-06T03:02:49.505Z,23.78
2017-01-06T03:03:04.462Z,23.67
2017-01-06T03:03:19.321Z,23.71
2017-01-06T03:03:34.184Z,23.66
2017-01-06T03:03:49.081Z,23.64
2017-01-06T03:04:03.934Z,23.62
2017-01-06T03:04:18.805Z,23.57
2017-01-06T03:04:33.729Z,23.62
2017-01-06T03:04:48.588Z,23.59
2017-01-06T03:05:03.444Z,23.66
2017-01-06T03:05:18.433Z,23.6
2017-01-06T03:05:33.364Z,23.57
2017-01-06T03:05:48.241Z,23.48
2017-01-06T03:06:03.115Z,23.44
2017-01-06T03:06:18.024Z,23.47
2017-01-06T03:06:32.904Z,23.47
2017-01-06T03:06:47.841Z,23.44
2017-01-06T03:07:02.659Z,23.37
2017-01-06T03:07:17.514Z,23.41
2017-01-06T03:07:32.462Z,23.34
2017-01-06T03:07:47.382Z,23.35
2017-01-06T03:08:02.274Z,23.35
2017-01-06T03:08:17.269Z,23.26
2017-01-06T03:08:32.303Z,23.34
2017-01-06T03:08:47.227Z,23.26
2017-01-06T03:09:02.130Z,23.25
2017-01-06T03:09:17.056Z,23.28
2017-01-06T03:09:31.908Z,23.29
2017-01-06T03:09:46.762Z,23.21
2017-01-06T03:10:01.679Z,23.24
2017-01-06T03:10:16.540Z,23.21
2017-01-06T03:10:31.404Z,23.19
2017-01-06T03:10:46.271Z,23.18
2017-01-06T03:11:01.086Z,23.25
2017-01-06T03:11:15.906Z,23.19
2017-01-06T03:11:30.751Z,23.1
2017-01-06T03:11:45.584Z,23.19
2017-01-06T03:12:00.389Z,23.06
2017-01-06T03:12:15.198Z,23.09
2017-01-06T03:12:30.086Z,23.09
2017-01-06T03:12:45.067Z,23.09